Setif, Algeria
Current Conditions -  °F | °C
As of 11:00 AM on Saturday 25 Oct 2014 (Local Time) from DAAS Reporting Station
Clear Clear  
Wind Chill: 66°   Ceiling: Unl
Heat Index: 66°   Visibility: 6mi
Dew Point: 34°   Wind: 9mph
Humidity: 30%   Direction: 280°W
Pressure: 30.18"   Gusts: NA
Location:  36.08°N, 5.44°E
Report Text: DAAS 251000Z 28008KT CAVOK 19/01 Q1022
Loading
Personal Weather Stations






























Interactive Weather Map
Tropical Storm Tracking
New forecast layout! Learn more

10-Day Weather Forecast

Advertisements
Track Severe Weather on mobile